sensor_id;sensor_type;location;lat;lon;timestamp;P1;durP1;ratioP1;P2;durP2;ratioP2
39654;SDS011;25336;59.944;11.010;2024-02-16T00:00:23;4.68;;;3.65;;
39654;SDS011;25336;59.944;11.010;2024-02-16T00:02:49;3.30;;;3.00;;
39654;SDS011;25336;59.944;11.010;2024-02-16T00:05:15;3.65;;;3.25;;
39654;SDS011;25336;59.944;11.010;2024-02-16T00:07:41;5.72;;;4.07;;
39654;SDS011;25336;59.944;11.010;2024-02-16T00:10:07;3.72;;;2.97;;
39654;SDS011;25336;59.944;11.010;2024-02-16T00:12:37;4.30;;;3.22;;
39654;SDS011;25336;59.944;11.010;2024-02-16T00:15:05;3.47;;;3.08;;
39654;SDS011;25336;59.944;11.010;2024-02-16T00:17:32;4.53;;;3.30;;
39654;SDS011;25336;59.944;11.010;2024-02-16T00:19:58;4.15;;;3.30;;
39654;SDS011;25336;59.944;11.010;2024-02-16T00:22:24;3.92;;;3.38;;
39654;SDS011;25336;59.944;11.010;2024-02-16T00:24:51;4.10;;;3.20;;
39654;SDS011;25336;59.944;11.010;2024-02-16T00:27:17;4.28;;;3.40;;
39654;SDS011;25336;59.944;11.010;2024-02-16T00:29:43;6.07;;;3.65;;
39654;SDS011;25336;59.944;11.010;2024-02-16T00:32:09;5.45;;;3.45;;
39654;SDS011;25336;59.944;11.010;2024-02-16T00:34:35;5.75;;;3.65;;
39654;SDS011;25336;59.944;11.010;2024-02-16T00:37:02;4.18;;;3.75;;
39654;SDS011;25336;59.944;11.010;2024-02-16T00:39:35;3.85;;;3.45;;
39654;SDS011;25336;59.944;11.010;2024-02-16T00:42:02;5.25;;;3.88;;
39654;SDS011;25336;59.944;11.010;2024-02-16T00:44:28;5.60;;;3.45;;
39654;SDS011;25336;59.944;11.010;2024-02-16T00:46:54;5.15;;;3.78;;
39654;SDS011;25336;59.944;11.010;2024-02-16T00:49:21;4.25;;;3.42;;
39654;SDS011;25336;59.944;11.010;2024-02-16T00:51:47;4.25;;;3.33;;
39654;SDS011;25336;59.944;11.010;2024-02-16T00:54:13;3.85;;;3.42;;
39654;SDS011;25336;59.944;11.010;2024-02-16T00:56:39;5.10;;;4.05;;
39654;SDS011;25336;59.944;11.010;2024-02-16T00:59:04;4.20;;;3.47;;
39654;SDS011;25336;59.944;11.010;2024-02-16T01:01:30;3.72;;;3.33;;
39654;SDS011;25336;59.944;11.010;2024-02-16T01:03:56;4.03;;;2.92;;
39654;SDS011;25336;59.944;11.010;2024-02-16T01:06:22;4.70;;;3.17;;
39654;SDS011;25336;59.944;11.010;2024-02-16T01:08:47;3.35;;;2.58;;
39654;SDS011;25336;59.944;11.010;2024-02-16T01:11:13;4.32;;;2.75;;
39654;SDS011;25336;59.944;11.010;2024-02-16T01:13:39;3.10;;;2.25;;
39654;SDS011;25336;59.944;11.010;2024-02-16T01:16:07;5.43;;;2.40;;
39654;SDS011;25336;59.944;11.010;2024-02-16T01:18:33;2.75;;;2.50;;
39654;SDS011;25336;59.944;11.010;2024-02-16T01:21:01;3.42;;;2.50;;
39654;SDS011;25336;59.944;11.010;2024-02-16T01:23:29;5.25;;;2.45;;
39654;SDS011;25336;59.944;11.010;2024-02-16T01:25:55;3.03;;;2.58;;
39654;SDS011;25336;59.944;11.010;2024-02-16T01:28:21;3.45;;;2.22;;
39654;SDS011;25336;59.944;11.010;2024-02-16T01:30:48;2.78;;;2.22;;
39654;SDS011;25336;59.944;11.010;2024-02-16T01:33:14;2.95;;;2.60;;
39654;SDS011;25336;59.944;11.010;2024-02-16T01:35:39;3.17;;;2.10;;
39654;SDS011;25336;59.944;11.010;2024-02-16T01:38:05;4.68;;;2.22;;
39654;SDS011;25336;59.944;11.010;2024-02-16T01:40:31;2.60;;;2.05;;
39654;SDS011;25336;59.944;11.010;2024-02-16T01:42:58;2.25;;;2.05;;
39654;SDS011;25336;59.944;11.010;2024-02-16T01:45:23;3.08;;;2.35;;
39654;SDS011;25336;59.944;11.010;2024-02-16T01:47:50;2.28;;;2.08;;
39654;SDS011;25336;59.944;11.010;2024-02-16T01:50:17;2.47;;;1.80;;
39654;SDS011;25336;59.944;11.010;2024-02-16T01:52:45;1.70;;;1.60;;
39654;SDS011;25336;59.944;11.010;2024-02-16T01:55:14;1.60;;;1.50;;
39654;SDS011;25336;59.944;11.010;2024-02-16T01:57:44;2.00;;;1.88;;
39654;SDS011;25336;59.944;11.010;2024-02-16T02:00:11;1.52;;;1.42;;
39654;SDS011;25336;59.944;11.010;2024-02-16T02:02:40;1.75;;;1.65;;
39654;SDS011;25336;59.944;11.010;2024-02-16T02:05:06;1.73;;;1.63;;
39654;SDS011;25336;59.944;11.010;2024-02-16T02:07:32;1.70;;;1.60;;
39654;SDS011;25336;59.944;11.010;2024-02-16T02:09:58;1.95;;;1.75;;
39654;SDS011;25336;59.944;11.010;2024-02-16T02:12:24;1.80;;;1.70;;
39654;SDS011;25336;59.944;11.010;2024-02-16T02:14:50;1.55;;;1.45;;
39654;SDS011;25336;59.944;11.010;2024-02-16T02:17:17;1.80;;;1.70;;
39654;SDS011;25336;59.944;11.010;2024-02-16T02:19:44;1.40;;;1.30;;
39654;SDS011;25336;59.944;11.010;2024-02-16T02:22:17;1.92;;;1.52;;
39654;SDS011;25336;59.944;11.010;2024-02-16T02:24:45;2.03;;;1.77;;
39654;SDS011;25336;59.944;11.010;2024-02-16T02:27:12;1.58;;;1.48;;
39654;SDS011;25336;59.944;11.010;2024-02-16T02:29:39;1.80;;;1.70;;
39654;SDS011;25336;59.944;11.010;2024-02-16T02:32:05;1.42;;;1.30;;
39654;SDS011;25336;59.944;11.010;2024-02-16T02:34:31;1.73;;;1.63;;
39654;SDS011;25336;59.944;11.010;2024-02-16T02:36:58;1.58;;;1.30;;
39654;SDS011;25336;59.944;11.010;2024-02-16T02:39:24;1.60;;;1.50;;
39654;SDS011;25336;59.944;11.010;2024-02-16T02:41:49;1.42;;;1.33;;
39654;SDS011;25336;59.944;11.010;2024-02-16T02:44:15;1.80;;;1.70;;
39654;SDS011;25336;59.944;11.010;2024-02-16T02:46:41;1.65;;;1.55;;
39654;SDS011;25336;59.944;11.010;2024-02-16T02:49:06;1.88;;;1.65;;
39654;SDS011;25336;59.944;11.010;2024-02-16T02:51:33;1.45;;;1.35;;
39654;SDS011;25336;59.944;11.010;2024-02-16T02:53:59;3.92;;;1.70;;
39654;SDS011;25336;59.944;11.010;2024-02-16T02:56:25;1.55;;;1.33;;
39654;SDS011;25336;59.944;11.010;2024-02-16T02:58:50;1.63;;;1.40;;
39654;SDS011;25336;59.944;11.010;2024-02-16T03:01:16;1.15;;;1.15;;
39654;SDS011;25336;59.944;11.010;2024-02-16T03:03:44;1.60;;;1.50;;
39654;SDS011;25336;59.944;11.010;2024-02-16T03:06:10;1.30;;;1.20;;
39654;SDS011;25336;59.944;11.010;2024-02-16T03:08:36;1.40;;;1.30;;
39654;SDS011;25336;59.944;11.010;2024-02-16T03:11:01;1.33;;;1.23;;
39654;SDS011;25336;59.944;11.010;2024-02-16T03:13:29;1.00;;;1.00;;
39654;SDS011;25336;59.944;11.010;2024-02-16T03:15:56;1.05;;;1.05;;
39654;SDS011;25336;59.944;11.010;2024-02-16T03:18:22;1.38;;;1.25;;
39654;SDS011;25336;59.944;11.010;2024-02-16T03:20:48;0.98;;;0.98;;
39654;SDS011;25336;59.944;11.010;2024-02-16T03:23:17;2.75;;;1.45;;
39654;SDS011;25336;59.944;11.010;2024-02-16T03:25:43;1.38;;;1.15;;
39654;SDS011;25336;59.944;11.010;2024-02-16T03:28:11;1.60;;;1.05;;
39654;SDS011;25336;59.944;11.010;2024-02-16T03:30:37;1.30;;;1.20;;
39654;SDS011;25336;59.944;11.010;2024-02-16T03:33:03;1.20;;;1.10;;
39654;SDS011;25336;59.944;11.010;2024-02-16T03:35:29;1.15;;;1.15;;
39654;SDS011;25336;59.944;11.010;2024-02-16T03:37:55;1.23;;;1.23;;
39654;SDS011;25336;59.944;11.010;2024-02-16T03:40:22;1.27;;;1.20;;
39654;SDS011;25336;59.944;11.010;2024-02-16T03:42:50;1.10;;;1.10;;
39654;SDS011;25336;59.944;11.010;2024-02-16T03:45:16;1.40;;;1.30;;
39654;SDS011;25336;59.944;11.010;2024-02-16T03:47:42;1.48;;;1.38;;
39654;SDS011;25336;59.944;11.010;2024-02-16T03:50:08;3.15;;;1.23;;
39654;SDS011;25336;59.944;11.010;2024-02-16T03:52:34;1.20;;;1.10;;
39654;SDS011;25336;59.944;11.010;2024-02-16T03:55:00;2.35;;;1.20;;
39654;SDS011;25336;59.944;11.010;2024-02-16T03:57:25;1.10;;;1.10;;
39654;SDS011;25336;59.944;11.010;2024-02-16T03:59:51;1.13;;;1.08;;
39654;SDS011;25336;59.944;11.010;2024-02-16T04:02:17;1.13;;;1.08;;
39654;SDS011;25336;59.944;11.010;2024-02-16T04:04:44;1.30;;;1.20;;
39654;SDS011;25336;59.944;11.010;2024-02-16T04:07:10;0.95;;;0.95;;
39654;SDS011;25336;59.944;11.010;2024-02-16T04:09:37;1.73;;;1.20;;
39654;SDS011;25336;59.944;11.010;2024-02-16T04:12:03;1.40;;;1.30;;
39654;SDS011;25336;59.944;11.010;2024-02-16T04:14:29;1.25;;;1.17;;
39654;SDS011;25336;59.944;11.010;2024-02-16T04:16:56;1.38;;;1.27;;
39654;SDS011;25336;59.944;11.010;2024-02-16T04:19:28;1.35;;;1.25;;
39654;SDS011;25336;59.944;11.010;2024-02-16T04:21:54;1.60;;;1.50;;
39654;SDS011;25336;59.944;11.010;2024-02-16T04:24:20;1.70;;;1.60;;
39654;SDS011;25336;59.944;11.010;2024-02-16T04:26:46;1.45;;;1.35;;
39654;SDS011;25336;59.944;11.010;2024-02-16T04:29:12;1.52;;;1.42;;
39654;SDS011;25336;59.944;11.010;2024-02-16T04:31:41;1.40;;;1.30;;
39654;SDS011;25336;59.944;11.010;2024-02-16T04:34:07;1.55;;;1.45;;
39654;SDS011;25336;59.944;11.010;2024-02-16T04:36:34;1.30;;;1.20;;
39654;SDS011;25336;59.944;11.010;2024-02-16T04:39:00;1.55;;;1.45;;
39654;SDS011;25336;59.944;11.010;2024-02-16T04:41:26;1.58;;;1.48;;
39654;SDS011;25336;59.944;11.010;2024-02-16T04:43:52;1.27;;;1.17;;
39654;SDS011;25336;59.944;11.010;2024-02-16T04:46:18;1.60;;;1.50;;
39654;SDS011;25336;59.944;11.010;2024-02-16T04:48:44;1.48;;;1.38;;
39654;SDS011;25336;59.944;11.010;2024-02-16T04:51:11;1.98;;;1.25;;
39654;SDS011;25336;59.944;11.010;2024-02-16T04:53:36;1.20;;;1.10;;
39654;SDS011;25336;59.944;11.010;2024-02-16T04:56:02;0.95;;;0.95;;
39654;SDS011;25336;59.944;11.010;2024-02-16T04:58:28;1.25;;;1.17;;
39654;SDS011;25336;59.944;11.010;2024-02-16T05:00:54;1.38;;;1.27;;
39654;SDS011;25336;59.944;11.010;2024-02-16T05:03:20;0.80;;;0.80;;
39654;SDS011;25336;59.944;11.010;2024-02-16T05:05:45;1.45;;;1.25;;
39654;SDS011;25336;59.944;11.010;2024-02-16T05:08:11;1.30;;;1.20;;
39654;SDS011;25336;59.944;11.010;2024-02-16T05:10:37;1.02;;;1.02;;
39654;SDS011;25336;59.944;11.010;2024-02-16T05:13:03;1.67;;;1.40;;
39654;SDS011;25336;59.944;11.010;2024-02-16T05:15:29;1.50;;;1.40;;
39654;SDS011;25336;59.944;11.010;2024-02-16T05:17:56;1.17;;;1.13;;
39654;SDS011;25336;59.944;11.010;2024-02-16T05:20:22;1.35;;;1.25;;
39654;SDS011;25336;59.944;11.010;2024-02-16T05:22:48;1.48;;;1.20;;
39654;SDS011;25336;59.944;11.010;2024-02-16T05:25:18;2.75;;;1.50;;
39654;SDS011;25336;59.944;11.010;2024-02-16T05:27:44;2.00;;;1.65;;
39654;SDS011;25336;59.944;11.010;2024-02-16T05:30:12;2.45;;;1.60;;
39654;SDS011;25336;59.944;11.010;2024-02-16T05:32:40;2.25;;;2.05;;
39654;SDS011;25336;59.944;11.010;2024-02-16T05:35:07;1.25;;;1.15;;
39654;SDS011;25336;59.944;11.010;2024-02-16T05:37:43;1.50;;;1.40;;
39654;SDS011;25336;59.944;11.010;2024-02-16T05:40:12;1.40;;;1.30;;
39654;SDS011;25336;59.944;11.010;2024-02-16T05:42:52;1.15;;;1.08;;
39654;SDS011;25336;59.944;11.010;2024-02-16T05:45:19;2.17;;;1.30;;
39654;SDS011;25336;59.944;11.010;2024-02-16T05:47:48;0.90;;;0.90;;
39654;SDS011;25336;59.944;11.010;2024-02-16T05:50:15;1.10;;;1.00;;
39654;SDS011;25336;59.944;11.010;2024-02-16T05:52:42;1.00;;;1.00;;
39654;SDS011;25336;59.944;11.010;2024-02-16T05:55:09;1.15;;;1.08;;
39654;SDS011;25336;59.944;11.010;2024-02-16T05:57:36;1.10;;;1.00;;
39654;SDS011;25336;59.944;11.010;2024-02-16T06:00:06;1.48;;;1.20;;
39654;SDS011;25336;59.944;11.010;2024-02-16T06:02:34;1.65;;;1.20;;
39654;SDS011;25336;59.944;11.010;2024-02-16T06:05:01;1.02;;;1.00;;
39654;SDS011;25336;59.944;11.010;2024-02-16T06:07:28;0.98;;;0.98;;
39654;SDS011;25336;59.944;11.010;2024-02-16T06:09:57;1.40;;;1.10;;
39654;SDS011;25336;59.944;11.010;2024-02-16T06:12:23;2.47;;;1.20;;
39654;SDS011;25336;59.944;11.010;2024-02-16T06:14:49;1.88;;;1.30;;
39654;SDS011;25336;59.944;11.010;2024-02-16T06:17:15;1.65;;;1.40;;
39654;SDS011;25336;59.944;11.010;2024-02-16T06:19:41;1.00;;;1.00;;
39654;SDS011;25336;59.944;11.010;2024-02-16T06:22:08;1.05;;;0.95;;
39654;SDS011;25336;59.944;11.010;2024-02-16T06:24:34;1.40;;;1.30;;
39654;SDS011;25336;59.944;11.010;2024-02-16T06:27:00;2.90;;;2.65;;
39654;SDS011;25336;59.944;11.010;2024-02-16T06:29:26;3.63;;;2.50;;
39654;SDS011;25336;59.944;11.010;2024-02-16T06:31:53;3.45;;;2.80;;
39654;SDS011;25336;59.944;11.010;2024-02-16T06:34:19;3.15;;;2.50;;
39654;SDS011;25336;59.944;11.010;2024-02-16T06:36:45;2.83;;;2.60;;
39654;SDS011;25336;59.944;11.010;2024-02-16T06:39:11;3.58;;;2.53;;
39654;SDS011;25336;59.944;11.010;2024-02-16T06:41:41;3.63;;;2.92;;
39654;SDS011;25336;59.944;11.010;2024-02-16T06:44:14;2.88;;;2.67;;
39654;SDS011;25336;59.944;11.010;2024-02-16T06:46:41;2.88;;;2.33;;
39654;SDS011;25336;59.944;11.010;2024-02-16T06:49:07;2.38;;;2.17;;
39654;SDS011;25336;59.944;11.010;2024-02-16T06:51:33;2.28;;;2.08;;
39654;SDS011;25336;59.944;11.010;2024-02-16T06:53:59;2.85;;;2.40;;
39654;SDS011;25336;59.944;11.010;2024-02-16T06:56:25;2.28;;;2.08;;
39654;SDS011;25336;59.944;11.010;2024-02-16T06:58:51;3.83;;;2.05;;
39654;SDS011;25336;59.944;11.010;2024-02-16T07:01:17;1.85;;;1.65;;
39654;SDS011;25336;59.944;11.010;2024-02-16T07:03:46;4.22;;;1.70;;
39654;SDS011;25336;59.944;11.010;2024-02-16T07:06:12;2.47;;;2.10;;
39654;SDS011;25336;59.944;11.010;2024-02-16T07:08:42;2.72;;;2.17;;
39654;SDS011;25336;59.944;11.010;2024-02-16T07:11:09;1.65;;;1.55;;
39654;SDS011;25336;59.944;11.010;2024-02-16T07:13:39;2.60;;;1.38;;
39654;SDS011;25336;59.944;11.010;2024-02-16T07:16:08;1.52;;;1.42;;
39654;SDS011;25336;59.944;11.010;2024-02-16T07:18:34;1.83;;;1.60;;
39654;SDS011;25336;59.944;11.010;2024-02-16T07:21:01;4.65;;;1.73;;
39654;SDS011;25336;59.944;11.010;2024-02-16T07:23:27;4.03;;;2.65;;
39654;SDS011;25336;59.944;11.010;2024-02-16T07:25:55;2.70;;;2.17;;
39654;SDS011;25336;59.944;11.010;2024-02-16T07:28:22;4.68;;;2.20;;
39654;SDS011;25336;59.944;11.010;2024-02-16T07:30:49;1.55;;;1.45;;
39654;SDS011;25336;59.944;11.010;2024-02-16T07:33:15;4.03;;;1.85;;
39654;SDS011;25336;59.944;11.010;2024-02-16T07:35:41;5.20;;;4.38;;
39654;SDS011;25336;59.944;11.010;2024-02-16T07:38:07;3.60;;;2.20;;
39654;SDS011;25336;59.944;11.010;2024-02-16T07:40:33;2.47;;;1.80;;
39654;SDS011;25336;59.944;11.010;2024-02-16T07:42:59;2.45;;;1.63;;
39654;SDS011;25336;59.944;11.010;2024-02-16T07:45:25;3.33;;;2.03;;
39654;SDS011;25336;59.944;11.010;2024-02-16T07:47:51;2.00;;;1.67;;
39654;SDS011;25336;59.944;11.010;2024-02-16T07:50:21;2.45;;;2.00;;
39654;SDS011;25336;59.944;11.010;2024-02-16T07:52:47;4.38;;;1.77;;
39654;SDS011;25336;59.944;11.010;2024-02-16T07:55:13;3.85;;;2.40;;
39654;SDS011;25336;59.944;11.010;2024-02-16T07:57:39;3.67;;;2.58;;
39654;SDS011;25336;59.944;11.010;2024-02-16T08:00:05;7.55;;;3.03;;
39654;SDS011;25336;59.944;11.010;2024-02-16T08:02:32;2.75;;;2.45;;
39654;SDS011;25336;59.944;11.010;2024-02-16T08:04:58;3.38;;;2.47;;
39654;SDS011;25336;59.944;11.010;2024-02-16T08:07:24;3.45;;;2.72;;
39654;SDS011;25336;59.944;11.010;2024-02-16T08:09:50;7.95;;;2.83;;
39654;SDS011;25336;59.944;11.010;2024-02-16T08:12:17;4.47;;;3.33;;
39654;SDS011;25336;59.944;11.010;2024-02-16T08:14:43;3.28;;;2.55;;
39654;SDS011;25336;59.944;11.010;2024-02-16T08:17:10;3.47;;;2.30;;
39654;SDS011;25336;59.944;11.010;2024-02-16T08:19:36;2.72;;;1.83;;
39654;SDS011;25336;59.944;11.010;2024-02-16T08:22:04;4.70;;;2.28;;
39654;SDS011;25336;59.944;11.010;2024-02-16T08:24:34;3.15;;;2.20;;
39654;SDS011;25336;59.944;11.010;2024-02-16T08:27:00;6.30;;;2.65;;
39654;SDS011;25336;59.944;11.010;2024-02-16T08:29:26;5.75;;;2.90;;
39654;SDS011;25336;59.944;11.010;2024-02-16T08:31:53;5.75;;;2.60;;
39654;SDS011;25336;59.944;11.010;2024-02-16T08:34:20;5.95;;;3.15;;
39654;SDS011;25336;59.944;11.010;2024-02-16T08:36:47;6.03;;;3.10;;
39654;SDS011;25336;59.944;11.010;2024-02-16T08:39:13;12.55;;;3.20;;
39654;SDS011;25336;59.944;11.010;2024-02-16T08:41:40;3.80;;;3.13;;
39654;SDS011;25336;59.944;11.010;2024-02-16T08:44:07;15.38;;;3.20;;
39654;SDS011;25336;59.944;11.010;2024-02-16T08:46:39;5.72;;;4.05;;
39654;SDS011;25336;59.944;11.010;2024-02-16T08:49:05;5.07;;;3.20;;
39654;SDS011;25336;59.944;11.010;2024-02-16T08:51:31;3.17;;;2.78;;
39654;SDS011;25336;59.944;11.010;2024-02-16T08:53:58;4.20;;;3.30;;
39654;SDS011;25336;59.944;11.010;2024-02-16T08:56:25;4.50;;;3.65;;
39654;SDS011;25336;59.944;11.010;2024-02-16T08:58:50;8.15;;;3.80;;
39654;SDS011;25336;59.944;11.010;2024-02-16T09:01:16;7.78;;;3.53;;
39654;SDS011;25336;59.944;11.010;2024-02-16T09:03:42;6.93;;;4.05;;
39654;SDS011;25336;59.944;11.010;2024-02-16T09:06:08;15.73;;;5.55;;
39654;SDS011;25336;59.944;11.010;2024-02-16T09:08:34;10.70;;;7.03;;
39654;SDS011;25336;59.944;11.010;2024-02-16T09:11:02;5.88;;;4.53;;
39654;SDS011;25336;59.944;11.010;2024-02-16T09:13:34;10.75;;;4.13;;
39654;SDS011;25336;59.944;11.010;2024-02-16T09:16:01;4.72;;;3.55;;
39654;SDS011;25336;59.944;11.010;2024-02-16T09:18:31;4.82;;;3.75;;
39654;SDS011;25336;59.944;11.010;2024-02-16T09:20:57;9.70;;;4.13;;
39654;SDS011;25336;59.944;11.010;2024-02-16T09:23:23;5.35;;;4.03;;
39654;SDS011;25336;59.944;11.010;2024-02-16T09:25:49;4.55;;;3.85;;
39654;SDS011;25336;59.944;11.010;2024-02-16T09:28:16;6.70;;;4.90;;
39654;SDS011;25336;59.944;11.010;2024-02-16T09:30:44;6.80;;;4.55;;
39654;SDS011;25336;59.944;11.010;2024-02-16T09:33:10;12.80;;;5.30;;
39654;SDS011;25336;59.944;11.010;2024-02-16T09:35:36;11.68;;;4.30;;
39654;SDS011;25336;59.944;11.010;2024-02-16T09:38:01;6.68;;;4.43;;
39654;SDS011;25336;59.944;11.010;2024-02-16T09:40:28;7.43;;;5.13;;
39654;SDS011;25336;59.944;11.010;2024-02-16T09:42:53;8.93;;;4.57;;
39654;SDS011;25336;59.944;11.010;2024-02-16T09:45:19;7.65;;;5.00;;
39654;SDS011;25336;59.944;11.010;2024-02-16T09:47:45;11.45;;;6.47;;
39654;SDS011;25336;59.944;11.010;2024-02-16T09:50:14;6.45;;;4.25;;
39654;SDS011;25336;59.944;11.010;2024-02-16T09:52:41;8.80;;;4.32;;
39654;SDS011;25336;59.944;11.010;2024-02-16T09:55:12;7.38;;;4.15;;
39654;SDS011;25336;59.944;11.010;2024-02-16T09:57:39;6.90;;;3.50;;
39654;SDS011;25336;59.944;11.010;2024-02-16T10:00:05;3.88;;;3.15;;
39654;SDS011;25336;59.944;11.010;2024-02-16T10:02:42;5.70;;;3.60;;
39654;SDS011;25336;59.944;11.010;2024-02-16T10:05:12;4.65;;;3.55;;
39654;SDS011;25336;59.944;11.010;2024-02-16T10:07:46;3.70;;;2.92;;
39654;SDS011;25336;59.944;11.010;2024-02-16T10:10:19;4.15;;;3.70;;
39654;SDS011;25336;59.944;11.010;2024-02-16T10:12:47;5.53;;;4.03;;
39654;SDS011;25336;59.944;11.010;2024-02-16T10:15:18;4.63;;;3.92;;
39654;SDS011;25336;59.944;11.010;2024-02-16T10:17:46;4.50;;;4.07;;
39654;SDS011;25336;59.944;11.010;2024-02-16T10:20:25;5.88;;;3.92;;
39654;SDS011;25336;59.944;11.010;2024-02-16T10:23:09;6.10;;;4.47;;
39654;SDS011;25336;59.944;11.010;2024-02-16T10:25:37;5.32;;;4.30;;
39654;SDS011;25336;59.944;11.010;2024-02-16T10:28:06;4.78;;;4.28;;
39654;SDS011;25336;59.944;11.010;2024-02-16T10:30:37;4.85;;;4.43;;
39654;SDS011;25336;59.944;11.010;2024-02-16T10:33:06;6.55;;;4.20;;
39654;SDS011;25336;59.944;11.010;2024-02-16T10:35:36;7.07;;;4.15;;
39654;SDS011;25336;59.944;11.010;2024-02-16T10:38:02;7.13;;;4.88;;
39654;SDS011;25336;59.944;11.010;2024-02-16T10:40:38;5.32;;;4.43;;
39654;SDS011;25336;59.944;11.010;2024-02-16T10:43:05;7.07;;;4.63;;
39654;SDS011;25336;59.944;11.010;2024-02-16T10:45:37;9.60;;;5.18;;
39654;SDS011;25336;59.944;11.010;2024-02-16T10:48:04;6.03;;;5.20;;
39654;SDS011;25336;59.944;11.010;2024-02-16T10:50:34;7.18;;;5.60;;
39654;SDS011;25336;59.944;11.010;2024-02-16T10:53:19;5.63;;;4.95;;
39654;SDS011;25336;59.944;11.010;2024-02-16T10:55:49;6.18;;;4.68;;
39654;SDS011;25336;59.944;11.010;2024-02-16T10:58:16;7.50;;;4.20;;
39654;SDS011;25336;59.944;11.010;2024-02-16T11:03:26;5.70;;;3.85;;
39654;SDS011;25336;59.944;11.010;2024-02-16T11:05:53;4.72;;;3.85;;
39654;SDS011;25336;59.944;11.010;2024-02-16T11:08:19;6.20;;;4.25;;
39654;SDS011;25336;59.944;11.010;2024-02-16T11:11:22;4.40;;;3.65;;
39654;SDS011;25336;59.944;11.010;2024-02-16T11:13:47;4.50;;;3.90;;
39654;SDS011;25336;59.944;11.010;2024-02-16T11:16:13;6.15;;;4.32;;
39654;SDS011;25336;59.944;11.010;2024-02-16T11:18:39;4.05;;;3.65;;
39654;SDS011;25336;59.944;11.010;2024-02-16T11:21:06;6.15;;;4.55;;
39654;SDS011;25336;59.944;11.010;2024-02-16T11:23:37;5.50;;;4.18;;
39654;SDS011;25336;59.944;11.010;2024-02-16T11:26:06;4.70;;;4.18;;
39654;SDS011;25336;59.944;11.010;2024-02-16T11:28:39;5.30;;;4.78;;
39654;SDS011;25336;59.944;11.010;2024-02-16T11:31:06;4.55;;;3.75;;
39654;SDS011;25336;59.944;11.010;2024-02-16T11:33:35;5.65;;;4.15;;
39654;SDS011;25336;59.944;11.010;2024-02-16T11:36:04;6.43;;;4.50;;
39654;SDS011;25336;59.944;11.010;2024-02-16T11:38:33;5.15;;;4.65;;
39654;SDS011;25336;59.944;11.010;2024-02-16T11:41:00;3.53;;;3.22;;
39654;SDS011;25336;59.944;11.010;2024-02-16T11:43:29;4.38;;;3.50;;
39654;SDS011;25336;59.944;11.010;2024-02-16T11:45:55;4.07;;;3.67;;
39654;SDS011;25336;59.944;11.010;2024-02-16T11:48:25;4.32;;;2.92;;
39654;SDS011;25336;59.944;11.010;2024-02-16T11:50:59;2.85;;;2.65;;
39654;SDS011;25336;59.944;11.010;2024-02-16T11:53:27;3.85;;;2.50;;
39654;SDS011;25336;59.944;11.010;2024-02-16T11:55:54;2.85;;;2.55;;
39654;SDS011;25336;59.944;11.010;2024-02-16T11:58:19;3.85;;;2.40;;
39654;SDS011;25336;59.944;11.010;2024-02-16T12:00:46;3.55;;;2.30;;
39654;SDS011;25336;59.944;11.010;2024-02-16T12:03:22;4.53;;;3.30;;
39654;SDS011;25336;59.944;11.010;2024-02-16T12:08:21;3.38;;;3.08;;
39654;SDS011;25336;59.944;11.010;2024-02-16T12:10:47;7.28;;;3.97;;
39654;SDS011;25336;59.944;11.010;2024-02-16T12:13:18;5.50;;;4.32;;
39654;SDS011;25336;59.944;11.010;2024-02-16T12:15:47;3.80;;;3.20;;
39654;SDS011;25336;59.944;11.010;2024-02-16T12:18:24;2.63;;;2.40;;
39654;SDS011;25336;59.944;11.010;2024-02-16T12:23:25;3.25;;;2.97;;
39654;SDS011;25336;59.944;11.010;2024-02-16T12:25:51;5.07;;;3.10;;
39654;SDS011;25336;59.944;11.010;2024-02-16T12:28:18;3.83;;;3.08;;
39654;SDS011;25336;59.944;11.010;2024-02-16T12:30:48;2.90;;;2.60;;
39654;SDS011;25336;59.944;11.010;2024-02-16T12:33:14;3.55;;;3.05;;
39654;SDS011;25336;59.944;11.010;2024-02-16T12:35:41;3.35;;;2.72;;
39654;SDS011;25336;59.944;11.010;2024-02-16T12:38:07;3.47;;;3.17;;
39654;SDS011;25336;59.944;11.010;2024-02-16T12:40:33;4.35;;;3.40;;
39654;SDS011;25336;59.944;11.010;2024-02-16T12:42:59;4.05;;;3.00;;
39654;SDS011;25336;59.944;11.010;2024-02-16T12:45:24;2.80;;;2.60;;
39654;SDS011;25336;59.944;11.010;2024-02-16T12:47:51;6.35;;;3.17;;
39654;SDS011;25336;59.944;11.010;2024-02-16T12:50:17;3.35;;;3.05;;
39654;SDS011;25336;59.944;11.010;2024-02-16T12:52:43;5.00;;;3.45;;
39654;SDS011;25336;59.944;11.010;2024-02-16T12:55:09;3.97;;;3.28;;
39654;SDS011;25336;59.944;11.010;2024-02-16T12:57:38;6.95;;;3.78;;
39654;SDS011;25336;59.944;11.010;2024-02-16T13:00:05;3.78;;;3.47;;
39654;SDS011;25336;59.944;11.010;2024-02-16T13:02:31;4.65;;;3.67;;
39654;SDS011;25336;59.944;11.010;2024-02-16T13:04:57;4.10;;;3.63;;
39654;SDS011;25336;59.944;11.010;2024-02-16T13:07:25;3.90;;;3.50;;
39654;SDS011;25336;59.944;11.010;2024-02-16T13:09:52;4.80;;;4.00;;
39654;SDS011;25336;59.944;11.010;2024-02-16T13:12:19;5.18;;;3.88;;
39654;SDS011;25336;59.944;11.010;2024-02-16T13:14:49;4.95;;;4.13;;
39654;SDS011;25336;59.944;11.010;2024-02-16T13:17:15;6.90;;;4.13;;
39654;SDS011;25336;59.944;11.010;2024-02-16T13:19:40;6.15;;;4.80;;
39654;SDS011;25336;59.944;11.010;2024-02-16T13:22:06;6.13;;;4.50;;
39654;SDS011;25336;59.944;11.010;2024-02-16T13:24:32;4.25;;;3.67;;
39654;SDS011;25336;59.944;11.010;2024-02-16T13:26:58;4.47;;;3.55;;
39654;SDS011;25336;59.944;11.010;2024-02-16T13:29:24;4.13;;;3.60;;
39654;SDS011;25336;59.944;11.010;2024-02-16T13:31:50;5.45;;;4.55;;
39654;SDS011;25336;59.944;11.010;2024-02-16T13:34:16;7.25;;;5.97;;
39654;SDS011;25336;59.944;11.010;2024-02-16T13:36:41;10.95;;;7.45;;
39654;SDS011;25336;59.944;11.010;2024-02-16T13:39:07;6.95;;;5.20;;
39654;SDS011;25336;59.944;11.010;2024-02-16T13:41:33;5.78;;;4.88;;
39654;SDS011;25336;59.944;11.010;2024-02-16T13:43:59;4.65;;;4.25;;
39654;SDS011;25336;59.944;11.010;2024-02-16T13:46:25;6.20;;;5.18;;
39654;SDS011;25336;59.944;11.010;2024-02-16T13:48:51;6.82;;;6.18;;
39654;SDS011;25336;59.944;11.010;2024-02-16T13:51:17;7.35;;;6.15;;
39654;SDS011;25336;59.944;11.010;2024-02-16T13:53:44;7.07;;;5.63;;
39654;SDS011;25336;59.944;11.010;2024-02-16T13:56:10;9.00;;;6.05;;
39654;SDS011;25336;59.944;11.010;2024-02-16T13:58:36;7.97;;;5.93;;
39654;SDS011;25336;59.944;11.010;2024-02-16T14:01:03;8.90;;;6.70;;
39654;SDS011;25336;59.944;11.010;2024-02-16T14:03:29;7.72;;;6.53;;
39654;SDS011;25336;59.944;11.010;2024-02-16T14:05:56;8.88;;;5.55;;
39654;SDS011;25336;59.944;11.010;2024-02-16T14:08:22;6.30;;;5.53;;
39654;SDS011;25336;59.944;11.010;2024-02-16T14:10:48;9.27;;;6.35;;
39654;SDS011;25336;59.944;11.010;2024-02-16T14:13:14;7.20;;;5.88;;
39654;SDS011;25336;59.944;11.010;2024-02-16T14:15:41;7.80;;;5.82;;
39654;SDS011;25336;59.944;11.010;2024-02-16T14:18:07;6.40;;;5.38;;
39654;SDS011;25336;59.944;11.010;2024-02-16T14:20:34;6.45;;;5.05;;
39654;SDS011;25336;59.944;11.010;2024-02-16T14:23:00;6.93;;;5.50;;
39654;SDS011;25336;59.944;11.010;2024-02-16T14:25:28;5.65;;;4.95;;
39654;SDS011;25336;59.944;11.010;2024-02-16T14:27:53;6.07;;;4.97;;
39654;SDS011;25336;59.944;11.010;2024-02-16T14:30:20;5.43;;;4.72;;
39654;SDS011;25336;59.944;11.010;2024-02-16T14:32:46;5.60;;;5.03;;
39654;SDS011;25336;59.944;11.010;2024-02-16T14:35:11;6.68;;;5.10;;
39654;SDS011;25336;59.944;11.010;2024-02-16T14:37:37;6.50;;;5.18;;
39654;SDS011;25336;59.944;11.010;2024-02-16T14:40:04;6.38;;;5.05;;